createdAt,value
2023-08-03T00:01:30.697Z,26.83
2023-08-03T00:04:02.356Z,22.40
2023-08-03T00:06:31.808Z,21.30
2023-08-03T00:09:01.202Z,26.83
2023-08-03T00:11:31.806Z,19.60
2023-08-03T00:14:19.763Z,18.97
2023-08-03T00:16:48.995Z,20.90
2023-08-03T00:19:18.325Z,18.47
2023-08-03T00:21:47.428Z,20.87
2023-08-03T00:24:16.590Z,20.37
2023-08-03T00:26:48.401Z,17.97
2023-08-03T00:29:17.523Z,19.20
2023-08-03T00:31:47.043Z,22.87
2023-08-03T00:34:17.940Z,20.07
2023-08-03T00:36:47.445Z,28.80
2023-08-03T00:39:16.557Z,30.87
2023-08-03T00:41:47.180Z,29.03
2023-08-03T00:44:16.235Z,34.63
2023-08-03T00:46:45.730Z,30.10
2023-08-03T00:49:15.065Z,34.17
2023-08-03T00:51:44.633Z,29.57
2023-08-03T00:54:14.257Z,30.97
2023-08-03T00:56:44.286Z,24.20
2023-08-03T00:59:14.907Z,19.20
2023-08-03T01:01:45.405Z,16.30
2023-08-03T01:04:16.525Z,14.50
2023-08-03T01:06:45.909Z,20.13
2023-08-03T01:09:16.098Z,18.13
2023-08-03T01:11:45.785Z,18.93
2023-08-03T01:14:16.953Z,16.47
2023-08-03T01:16:47.654Z,15.53
2023-08-03T01:19:18.373Z,21.40
2023-08-03T01:21:49.472Z,13.77
2023-08-03T01:24:20.691Z,34.70
2023-08-03T01:26:49.980Z,35.03
2023-08-03T01:29:19.633Z,34.00
2023-08-03T01:31:49.494Z,23.87
2023-08-03T01:34:19.015Z,34.20
2023-08-03T01:36:48.577Z,26.73
2023-08-03T01:39:17.854Z,37.37
2023-08-03T01:41:48.455Z,28.93
2023-08-03T01:44:29.215Z,29.33
2023-08-03T01:47:01.015Z,32.40
2023-08-03T01:49:38.261Z,32.57
2023-08-03T01:52:08.996Z,32.60
2023-08-03T01:54:38.196Z,66.93
2023-08-03T01:57:09.407Z,48.90
2023-08-03T01:59:38.500Z,48.90
2023-08-03T02:02:08.020Z,28.83
2023-08-03T02:04:37.237Z,25.40
2023-08-03T02:07:12.116Z,35.00
2023-08-03T02:09:41.326Z,26.10
2023-08-03T02:12:12.865Z,18.93
2023-08-03T02:14:42.653Z,20.83
2023-08-03T02:17:19.729Z,20.23
2023-08-03T02:19:50.389Z,24.63
2023-08-03T02:22:19.655Z,24.37
2023-08-03T02:24:48.820Z,20.83
2023-08-03T02:27:19.618Z,20.50
2023-08-03T02:29:48.825Z,19.83
2023-08-03T02:32:18.371Z,24.27
2023-08-03T02:34:48.552Z,18.37
2023-08-03T02:37:20.649Z,18.17
2023-08-03T02:39:50.407Z,26.20
2023-08-03T02:42:27.339Z,16.67
2023-08-03T02:44:57.253Z,28.33
2023-08-03T02:47:26.744Z,27.63
2023-08-03T02:50:00.320Z,23.33
2023-08-03T02:52:29.383Z,26.03
2023-08-03T02:55:09.274Z,40.27
2023-08-03T02:57:43.959Z,27.03
2023-08-03T03:00:23.208Z,97.43
2023-08-03T03:02:53.113Z,38.93
2023-08-03T03:05:36.845Z,26.00
2023-08-03T03:08:06.524Z,33.10
2023-08-03T03:10:36.551Z,26.13
2023-08-03T03:13:07.610Z,31.40
2023-08-03T03:15:36.873Z,27.43
2023-08-03T03:18:06.082Z,26.57
2023-08-03T03:20:35.197Z,18.43
2023-08-03T03:23:04.312Z,25.83
2023-08-03T03:25:33.349Z,25.87
2023-08-03T03:28:06.507Z,33.00
2023-08-03T03:30:42.050Z,42.33
2023-08-03T03:33:11.277Z,27.03
2023-08-03T03:35:45.213Z,36.60
2023-08-03T03:38:18.635Z,53.33
2023-08-03T03:40:49.138Z,37.27
2023-08-03T03:43:19.420Z,45.03
2023-08-03T03:45:59.486Z,50.60
2023-08-03T03:48:31.364Z,47.17
2023-08-03T03:51:04.369Z,36.80
2023-08-03T03:53:34.351Z,42.83
2023-08-03T03:56:10.599Z,35.93
2023-08-03T03:58:40.410Z,28.30
2023-08-03T04:01:11.530Z,28.03
2023-08-03T04:03:41.503Z,38.67
2023-08-03T04:06:12.752Z,46.00
2023-08-03T04:08:42.149Z,32.30
2023-08-03T04:11:11.788Z,43.67
2023-08-03T04:13:40.832Z,29.80
2023-08-03T04:16:12.553Z,60.77
2023-08-03T04:19:00.421Z,54.40
2023-08-03T04:21:29.588Z,50.23
2023-08-03T04:24:06.380Z,95.53
2023-08-03T04:26:37.846Z,32.97
2023-08-03T04:29:12.435Z,37.17
2023-08-03T04:31:44.003Z,24.87
2023-08-03T04:34:13.239Z,27.97
2023-08-03T04:36:44.601Z,39.17
2023-08-03T04:39:13.945Z,20.90
2023-08-03T04:41:43.601Z,31.60
2023-08-03T04:44:13.394Z,22.77
2023-08-03T04:46:44.897Z,31.17
2023-08-03T04:49:35.905Z,26.57
2023-08-03T04:52:10.518Z,24.10
2023-08-03T04:54:39.932Z,28.70
2023-08-03T04:57:09.758Z,37.87
2023-08-03T04:59:45.660Z,34.23
2023-08-03T05:02:16.502Z,26.00
2023-08-03T05:04:45.757Z,36.17
2023-08-03T05:07:16.827Z,35.43
2023-08-03T05:09:46.930Z,33.90
2023-08-03T05:12:16.254Z,21.60
2023-08-03T05:14:45.242Z,35.43
2023-08-03T05:17:15.808Z,38.00
2023-08-03T05:19:44.977Z,32.27
2023-08-03T05:22:13.950Z,26.43
2023-08-03T05:24:43.041Z,26.53
2023-08-03T05:27:12.266Z,23.57
2023-08-03T05:29:44.975Z,24.40
2023-08-03T05:32:15.809Z,28.37
2023-08-03T05:35:04.804Z,29.93
2023-08-03T05:37:34.753Z,18.60
2023-08-03T05:40:05.649Z,34.63
2023-08-03T05:42:40.149Z,27.03
2023-08-03T05:45:40.201Z,32.17
2023-08-03T05:48:17.408Z,36.03
2023-08-03T05:50:48.064Z,26.47
2023-08-03T05:53:20.718Z,32.97
2023-08-03T05:56:09.782Z,41.63
2023-08-03T05:58:42.656Z,21.90
2023-08-03T06:01:14.180Z,25.63
2023-08-03T06:03:46.288Z,34.17
2023-08-03T06:06:22.865Z,29.33
2023-08-03T06:08:54.647Z,52.07
2023-08-03T06:13:55.638Z,23.17
2023-08-03T06:16:26.483Z,43.87
2023-08-03T06:19:00.493Z,25.10
2023-08-03T06:21:36.062Z,37.43
2023-08-03T06:24:06.424Z,29.77
2023-08-03T06:27:00.188Z,21.30
2023-08-03T06:29:29.478Z,21.23
2023-08-03T06:31:58.604Z,28.30
2023-08-03T06:34:29.826Z,47.53
2023-08-03T06:36:58.780Z,22.90
2023-08-03T06:39:27.927Z,29.23
2023-08-03T06:41:57.273Z,39.70
2023-08-03T06:44:26.169Z,46.87
2023-08-03T06:46:57.347Z,43.07
2023-08-03T06:49:28.050Z,31.90
2023-08-03T06:51:57.789Z,31.70
2023-08-03T06:54:26.970Z,23.90
2023-08-03T06:56:56.272Z,30.83
2023-08-03T06:59:25.259Z,23.07
2023-08-03T07:01:55.107Z,31.00
2023-08-03T07:04:24.445Z,19.77
2023-08-03T07:06:54.839Z,32.57
2023-08-03T07:09:23.815Z,61.17
2023-08-03T07:11:53.044Z,27.27
2023-08-03T07:14:22.620Z,15.33
2023-08-03T07:16:51.582Z,21.30
2023-08-03T07:19:20.720Z,56.33
2023-08-03T07:21:49.722Z,32.17
2023-08-03T07:24:20.151Z,31.67
2023-08-03T07:26:50.956Z,31.13
2023-08-03T07:29:20.077Z,26.70
2023-08-03T07:31:49.806Z,29.03
2023-08-03T07:34:19.111Z,28.37
2023-08-03T07:36:48.747Z,43.57
2023-08-03T07:39:19.377Z,31.53
2023-08-03T07:41:50.218Z,36.70
2023-08-03T07:44:19.777Z,51.63
2023-08-03T07:46:55.723Z,55.57
2023-08-03T07:49:24.834Z,34.73
2023-08-03T07:51:53.778Z,28.90
2023-08-03T07:54:22.833Z,31.23
2023-08-03T07:56:54.209Z,26.63
2023-08-03T07:59:23.411Z,22.97
2023-08-03T08:01:52.488Z,18.83
2023-08-03T08:04:21.551Z,18.27
2023-08-03T08:06:52.148Z,27.43
2023-08-03T08:09:21.378Z,22.23
2023-08-03T08:11:50.559Z,18.20
2023-08-03T08:14:21.049Z,22.53
2023-08-03T08:16:58.918Z,26.53
2023-08-03T08:19:40.052Z,32.47
2023-08-03T08:22:16.457Z,25.10
2023-08-03T08:24:46.969Z,26.33
2023-08-03T08:27:18.563Z,19.57
2023-08-03T08:29:50.066Z,22.37
2023-08-03T08:32:19.457Z,21.83
2023-08-03T08:34:48.512Z,22.43
2023-08-03T08:37:17.455Z,16.40
2023-08-03T08:40:05.738Z,19.53
2023-08-03T08:42:34.870Z,18.80
2023-08-03T08:45:06.757Z,30.13
2023-08-03T08:47:36.254Z,16.93
2023-08-03T08:55:17.434Z,14.67
2023-08-03T09:00:22.566Z,36.33
2023-08-03T09:02:55.708Z,17.90
2023-08-03T09:08:05.655Z,22.13
2023-08-03T09:10:51.698Z,11.63
2023-08-03T09:13:29.347Z,12.37
2023-08-03T09:16:00.241Z,18.57
2023-08-03T09:18:31.262Z,16.47
2023-08-03T09:29:32.767Z,20.40
2023-08-03T09:32:06.493Z,15.20
2023-08-03T09:37:12.771Z,9.03
2023-08-03T09:40:05.795Z,14.43
2023-08-03T09:42:35.781Z,10.00
2023-08-03T09:45:33.227Z,11.97
2023-08-03T09:47:59.776Z,15.10
2023-08-03T09:50:34.048Z,10.23
2023-08-03T09:55:51.014Z,14.23
2023-08-03T09:58:22.408Z,12.90
2023-08-03T10:00:53.183Z,6.23
2023-08-03T10:03:23.739Z,25.02
2023-08-03T10:05:54.896Z,7.60
2023-08-03T10:08:29.788Z,17.30
2023-08-03T10:11:18.029Z,16.57
2023-08-03T10:13:49.693Z,17.30
2023-08-03T10:16:19.764Z,10.23
2023-08-03T10:18:59.818Z,23.02
2023-08-03T10:21:30.795Z,16.65
2023-08-03T10:24:14.151Z,18.20
2023-08-03T10:26:44.730Z,23.10
2023-08-03T10:29:13.977Z,24.10
2023-08-03T10:31:56.563Z,16.08
2023-08-03T10:34:30.518Z,21.15
2023-08-03T10:37:00.856Z,13.00
2023-08-03T10:39:55.600Z,20.13
2023-08-03T10:42:27.532Z,17.58
2023-08-03T10:44:58.593Z,11.80
2023-08-03T10:47:32.751Z,13.90
2023-08-03T10:50:03.600Z,8.45
2023-08-03T10:52:33.665Z,16.10
2023-08-03T10:55:23.114Z,14.73
2023-08-03T10:57:52.475Z,5.90
2023-08-03T11:00:21.446Z,9.18
2023-08-03T11:02:50.501Z,28.70
2023-08-03T11:05:21.220Z,8.90
2023-08-03T11:07:51.424Z,20.58
2023-08-03T11:10:24.123Z,24.13
2023-08-03T11:12:56.402Z,10.82
2023-08-03T11:15:25.847Z,21.13
2023-08-03T11:17:54.762Z,17.05
2023-08-03T11:20:25.892Z,23.40
2023-08-03T11:22:55.059Z,18.80
2023-08-03T11:25:24.428Z,8.40
2023-08-03T11:27:55.508Z,12.80
2023-08-03T11:30:27.642Z,10.77
2023-08-03T11:33:00.448Z,18.85
2023-08-03T11:35:31.209Z,15.43
2023-08-03T11:38:00.564Z,8.27
2023-08-03T11:40:29.671Z,11.75
2023-08-03T11:43:00.708Z,22.75
2023-08-03T11:45:32.267Z,15.10
2023-08-03T11:48:01.750Z,17.83
2023-08-03T11:50:33.716Z,13.30
2023-08-03T11:53:17.634Z,18.80
2023-08-03T11:55:48.340Z,18.15
2023-08-03T11:58:16.286Z,16.77
2023-08-03T12:00:46.954Z,13.13
2023-08-03T12:03:31.850Z,15.50
2023-08-03T12:06:29.509Z,16.02
2023-08-03T12:08:59.331Z,26.88
2023-08-03T12:11:32.522Z,25.05
2023-08-03T12:14:13.608Z,12.05
2023-08-03T12:16:43.142Z,15.02
2023-08-03T12:19:13.489Z,17.02
2023-08-03T12:21:44.407Z,16.52
2023-08-03T12:24:14.260Z,27.60
2023-08-03T12:26:43.156Z,18.80
2023-08-03T12:29:12.173Z,16.00
2023-08-03T12:31:45.880Z,12.05
2023-08-03T12:34:23.408Z,10.77
2023-08-03T12:37:12.969Z,18.67
2023-08-03T12:39:46.822Z,18.38
2023-08-03T12:42:21.697Z,17.10
2023-08-03T12:44:51.763Z,18.23
2023-08-03T12:47:21.003Z,20.70
2023-08-03T12:49:50.738Z,13.60
2023-08-03T12:52:21.281Z,31.35
2023-08-03T12:54:50.169Z,13.07
2023-08-03T12:57:19.159Z,14.50
2023-08-03T12:59:48.128Z,27.75
2023-08-03T13:02:17.382Z,33.20
2023-08-03T13:04:47.316Z,22.52
2023-08-03T13:07:25.340Z,16.10
2023-08-03T13:09:54.388Z,26.63
2023-08-03T13:12:23.436Z,8.35
2023-08-03T13:14:52.569Z,19.70
2023-08-03T13:17:21.723Z,17.77
2023-08-03T13:19:50.643Z,28.83
2023-08-03T13:22:21.026Z,45.33
2023-08-03T13:24:50.390Z,19.75
2023-08-03T13:27:21.941Z,17.00
2023-08-03T13:29:52.151Z,16.67
2023-08-03T13:32:21.319Z,15.90
2023-08-03T13:34:50.720Z,29.02
2023-08-03T13:37:21.151Z,13.93
2023-08-03T13:39:50.139Z,15.63
2023-08-03T13:42:19.025Z,26.63
2023-08-03T13:44:47.970Z,30.75
2023-08-03T13:47:16.975Z,30.67
2023-08-03T13:49:46.312Z,12.10
2023-08-03T13:52:15.437Z,11.13
2023-08-03T13:54:45.798Z,26.95
2023-08-03T13:57:15.085Z,30.63
2023-08-03T13:59:44.221Z,17.58
2023-08-03T14:02:14.627Z,17.65
2023-08-03T14:04:43.792Z,8.88
2023-08-03T14:07:13.191Z,26.73
2023-08-03T14:09:42.755Z,56.90
2023-08-03T14:12:16.643Z,24.55
2023-08-03T14:14:48.294Z,11.93
2023-08-03T14:17:53.712Z,6.88
2023-08-03T14:22:39.327Z,15.85
2023-08-03T14:27:51.985Z,14.57
2023-08-03T14:30:23.004Z,27.08
2023-08-03T14:32:52.257Z,42.85
2023-08-03T14:37:53.083Z,17.90
2023-08-03T14:40:22.328Z,35.05
2023-08-03T14:42:56.737Z,25.65
2023-08-03T14:45:36.054Z,56.88
2023-08-03T14:48:09.089Z,44.25
2023-08-03T14:50:39.270Z,23.92
2023-08-03T14:53:08.322Z,48.55
2023-08-03T14:56:33.165Z,22.17
2023-08-03T15:01:07.782Z,43.75
2023-08-03T15:03:38.532Z,47.92
2023-08-03T15:06:15.454Z,26.00
2023-08-03T15:08:44.893Z,28.98
2023-08-03T15:11:13.900Z,22.15
2023-08-03T15:13:45.705Z,12.55
2023-08-03T15:16:29.148Z,69.78
2023-08-03T15:18:58.926Z,57.70
2023-08-03T15:21:29.778Z,46.28
2023-08-03T15:24:01.614Z,42.53
2023-08-03T15:26:56.239Z,37.08
2023-08-03T15:29:28.486Z,40.72
2023-08-03T15:32:00.697Z,26.03
2023-08-03T15:34:52.771Z,33.03
2023-08-03T15:37:24.951Z,22.20
2023-08-03T15:39:57.669Z,48.05
2023-08-03T15:42:31.376Z,56.10
2023-08-03T15:45:08.821Z,33.03
2023-08-03T15:48:19.232Z,35.08
2023-08-03T15:50:32.272Z,32.63
2023-08-03T15:53:26.841Z,49.50
2023-08-03T15:58:45.259Z,35.90
2023-08-03T16:01:15.620Z,24.48
2023-08-03T16:03:45.426Z,28.53
2023-08-03T16:06:15.597Z,32.40
2023-08-03T16:08:44.928Z,33.30
2023-08-03T16:11:14.689Z,33.30
2023-08-03T16:13:44.236Z,40.40
2023-08-03T16:16:15.042Z,34.57
2023-08-03T16:18:44.163Z,40.17
2023-08-03T16:21:13.046Z,46.57
2023-08-03T16:23:42.031Z,59.87
2023-08-03T16:26:11.949Z,32.17
2023-08-03T16:28:41.378Z,30.57
2023-08-03T16:31:18.418Z,25.73
2023-08-03T16:33:48.223Z,26.67
2023-08-03T16:36:18.932Z,47.93
2023-08-03T16:38:47.949Z,75.60
2023-08-03T16:41:17.233Z,27.53
2023-08-03T16:43:46.750Z,38.93
2023-08-03T16:46:17.233Z,35.00
2023-08-03T16:49:05.488Z,37.37
2023-08-03T16:51:34.330Z,70.00
2023-08-03T16:54:03.472Z,42.63
2023-08-03T16:56:32.489Z,42.07
2023-08-03T16:59:03.707Z,47.03
2023-08-03T17:01:34.162Z,47.67
2023-08-03T17:04:03.800Z,76.27
2023-08-03T17:06:34.681Z,54.03
2023-08-03T17:09:06.127Z,43.50
2023-08-03T17:11:35.151Z,40.17
2023-08-03T17:14:03.949Z,31.80
2023-08-03T17:16:34.602Z,21.70
2023-08-03T17:19:03.622Z,38.43
2023-08-03T17:21:32.748Z,36.23
2023-08-03T17:24:01.893Z,24.00
2023-08-03T17:26:31.370Z,42.53
2023-08-03T17:29:00.188Z,52.73
2023-08-03T17:31:29.179Z,58.77
2023-08-03T17:33:59.561Z,67.97
2023-08-03T17:36:28.743Z,57.33
2023-08-03T17:38:57.616Z,45.37
2023-08-03T17:41:39.826Z,68.77
2023-08-03T17:44:13.927Z,71.20
2023-08-03T17:46:44.741Z,87.40
2023-08-03T17:49:15.455Z,53.00
2023-08-03T17:51:44.453Z,26.83
2023-08-03T17:54:13.367Z,49.07
2023-08-03T17:56:44.883Z,29.47
2023-08-03T17:59:14.167Z,36.47
2023-08-03T18:01:43.019Z,43.67
2023-08-03T18:04:12.138Z,41.80
2023-08-03T18:06:42.837Z,36.67
2023-08-03T18:09:12.277Z,46.43
2023-08-03T18:11:41.267Z,46.83
2023-08-03T18:14:10.336Z,62.40
2023-08-03T18:16:39.326Z,60.87
2023-08-03T18:19:12.037Z,43.07
2023-08-03T18:21:42.678Z,38.77
2023-08-03T18:24:11.766Z,47.87
2023-08-03T18:26:40.715Z,54.47
2023-08-03T18:29:09.698Z,62.37
2023-08-03T18:31:57.048Z,72.70
2023-08-03T18:34:26.069Z,66.63
2023-08-03T18:37:15.217Z,30.20
2023-08-03T18:39:44.442Z,28.20
2023-08-03T18:42:13.478Z,48.17
2023-08-03T18:44:42.409Z,58.93
2023-08-03T18:47:17.925Z,50.67
2023-08-03T18:49:46.975Z,64.73
2023-08-03T18:52:17.315Z,48.33
2023-08-03T18:54:46.295Z,35.40
2023-08-03T18:57:15.393Z,36.87
2023-08-03T18:59:44.426Z,31.03
2023-08-03T19:02:13.460Z,28.97
2023-08-03T19:04:42.414Z,32.03
2023-08-03T19:07:19.633Z,29.03
2023-08-03T19:09:48.656Z,22.37
2023-08-03T19:12:17.581Z,27.87
2023-08-03T19:14:46.485Z,30.30
2023-08-03T19:17:15.390Z,21.20
2023-08-03T19:19:44.432Z,32.07
2023-08-03T19:22:13.416Z,63.63
2023-08-03T19:24:43.727Z,69.30
2023-08-03T19:27:12.717Z,55.03
2023-08-03T19:29:41.591Z,51.97
2023-08-03T19:32:10.838Z,42.60
2023-08-03T19:34:39.914Z,28.80
2023-08-03T19:37:08.898Z,26.60
2023-08-03T19:39:37.888Z,30.07
2023-08-03T19:42:08.622Z,34.27
2023-08-03T19:44:37.829Z,26.77
2023-08-03T19:47:07.327Z,32.57
2023-08-03T19:58:14.768Z,11.07
2023-08-03T20:07:45.788Z,19.10
2023-08-03T20:10:15.085Z,10.63
2023-08-03T20:12:45.590Z,13.17
2023-08-03T20:15:15.355Z,19.80
2023-08-03T20:17:44.553Z,40.97
2023-08-03T20:20:14.105Z,31.37
2023-08-03T20:25:12.135Z,99.33
2023-08-03T20:27:42.284Z,89.40
2023-08-03T20:30:13.362Z,58.63
2023-08-03T20:32:42.432Z,82.30
2023-08-03T20:35:11.619Z,99.33
2023-08-03T20:37:42.712Z,99.30
2023-08-03T20:40:12.561Z,165.17
2023-08-03T20:42:42.820Z,142.70
2023-08-03T20:53:10.489Z,82.33
2023-08-03T20:55:39.550Z,59.67
2023-08-03T20:58:09.897Z,42.23
2023-08-03T21:00:41.747Z,29.30
2023-08-03T21:03:10.784Z,26.07
2023-08-03T21:05:44.776Z,26.20
2023-08-03T21:08:25.993Z,20.80
2023-08-03T21:10:56.258Z,19.73
2023-08-03T21:13:25.274Z,19.50
2023-08-03T21:15:55.647Z,18.50
2023-08-03T21:20:56.693Z,32.00
2023-08-03T21:23:25.572Z,18.57
2023-08-03T21:25:54.483Z,15.70
2023-08-03T21:28:23.685Z,19.57
2023-08-03T21:30:52.648Z,25.17
2023-08-03T21:33:23.031Z,20.83
2023-08-03T21:35:52.073Z,20.43
2023-08-03T21:38:21.014Z,20.33
2023-08-03T21:40:50.497Z,27.30
2023-08-03T21:43:20.620Z,24.30
2023-08-03T21:45:49.933Z,17.90
2023-08-03T21:48:19.183Z,24.40
2023-08-03T21:50:49.852Z,17.20
2023-08-03T21:53:18.924Z,21.20
2023-08-03T21:55:47.855Z,24.17
2023-08-03T21:58:16.730Z,26.77
2023-08-03T22:00:45.775Z,28.13
2023-08-03T22:03:14.784Z,18.77
2023-08-03T22:05:43.901Z,18.63
2023-08-03T22:08:14.506Z,15.43
2023-08-03T22:10:43.674Z,15.60
2023-08-03T22:13:12.712Z,12.53
2023-08-03T22:15:45.628Z,16.23
2023-08-03T22:18:14.972Z,15.37
2023-08-03T22:20:44.551Z,15.47
2023-08-03T22:23:14.982Z,37.57
2023-08-03T22:25:44.037Z,28.67
2023-08-03T22:28:13.035Z,24.67
2023-08-03T22:30:42.463Z,22.07
2023-08-03T22:33:11.577Z,25.60
2023-08-03T22:35:40.507Z,21.40
2023-08-03T22:38:09.801Z,17.33
2023-08-03T22:40:41.941Z,17.80
2023-08-03T22:43:11.241Z,22.07
2023-08-03T22:45:42.414Z,24.47
2023-08-03T22:48:12.545Z,12.27
2023-08-03T22:50:42.075Z,16.30
2023-08-03T22:53:11.133Z,23.37
2023-08-03T22:55:41.611Z,42.13
2023-08-03T22:58:10.646Z,29.43
2023-08-03T23:00:39.756Z,24.03
2023-08-03T23:03:08.888Z,33.80
2023-08-03T23:05:38.119Z,28.87
2023-08-03T23:08:07.171Z,24.67
2023-08-03T23:10:36.140Z,33.17
2023-08-03T23:13:06.513Z,26.57
2023-08-03T23:15:39.088Z,26.80
2023-08-03T23:18:08.351Z,40.83
2023-08-03T23:20:37.656Z,51.23
2023-08-03T23:23:07.713Z,46.37
2023-08-03T23:25:36.806Z,30.73
2023-08-03T23:28:07.257Z,29.13
2023-08-03T23:30:36.295Z,21.60
2023-08-03T23:33:05.434Z,19.80
2023-08-03T23:35:34.421Z,27.10
2023-08-03T23:38:03.330Z,21.43
2023-08-03T23:40:32.486Z,20.90
2023-08-03T23:43:01.425Z,22.23
2023-08-03T23:45:32.932Z,19.37
2023-08-03T23:48:02.001Z,21.83
2023-08-03T23:50:30.923Z,16.80
2023-08-03T23:52:59.894Z,17.77
2023-08-03T23:55:28.995Z,21.97
2023-08-03T23:57:58.087Z,13.80
